createdAt,value
2022-09-10T00:00:54.629Z,15.28
2022-09-10T00:01:59.438Z,15.19
2022-09-10T00:03:01.779Z,15.06
2022-09-10T00:04:06.614Z,15.12
2022-09-10T00:05:10.118Z,15.10
2022-09-10T00:06:15.738Z,15.08
2022-09-10T00:07:18.743Z,15.06
2022-09-10T00:08:23.386Z,15.06
2022-09-10T00:09:27.741Z,15.08
2022-09-10T00:10:29.537Z,15.09
2022-09-10T00:11:35.378Z,15.09
2022-09-10T00:12:37.172Z,15.02
2022-09-10T00:13:42.033Z,14.96
2022-09-10T00:14:43.823Z,14.92
2022-09-10T00:15:49.961Z,14.97
2022-09-10T00:16:51.824Z,14.95
2022-09-10T00:17:56.171Z,14.94
2022-09-10T00:18:58.095Z,14.94
2022-09-10T00:20:02.462Z,14.97
2022-09-10T00:21:12.500Z,14.96
2022-09-10T00:22:16.954Z,14.96
2022-09-10T00:23:19.429Z,14.93
2022-09-10T00:24:24.223Z,14.93
2022-09-10T00:25:26.100Z,14.89
2022-09-10T00:26:34.538Z,14.82
2022-09-10T00:27:36.591Z,14.80
2022-09-10T00:28:41.017Z,14.82
2022-09-10T00:29:42.790Z,14.85
2022-09-10T00:30:47.694Z,14.83
2022-09-10T00:31:50.145Z,14.77
2022-09-10T00:32:54.519Z,14.80
2022-09-10T00:33:56.974Z,14.78
2022-09-10T00:35:01.799Z,14.82
2022-09-10T00:36:06.108Z,14.82
2022-09-10T00:37:10.789Z,14.83
2022-09-10T00:38:13.286Z,14.83
2022-09-10T00:39:20.335Z,14.77
2022-09-10T00:40:22.457Z,14.81
2022-09-10T00:41:27.299Z,14.81
2022-09-10T00:42:29.194Z,14.85
2022-09-10T00:43:48.687Z,14.82
2022-09-10T00:45:01.005Z,14.83
2022-09-10T00:46:05.451Z,14.85
2022-09-10T00:47:13.418Z,14.85
2022-09-10T00:48:19.874Z,14.82
2022-09-10T00:49:24.071Z,14.82
2022-09-10T00:50:29.398Z,14.84
2022-09-10T00:51:32.747Z,14.83
2022-09-10T00:52:39.945Z,14.85
2022-09-10T00:53:43.129Z,14.86
2022-09-10T00:54:47.510Z,14.87
2022-09-10T00:55:50.419Z,14.84
2022-09-10T00:56:55.122Z,14.87
2022-09-10T00:57:57.243Z,14.89
2022-09-10T00:59:01.650Z,14.90
2022-09-10T01:00:05.933Z,14.89
2022-09-10T01:01:10.959Z,14.91
2022-09-10T01:02:13.005Z,14.91
2022-09-10T01:03:21.474Z,14.92
2022-09-10T01:04:27.206Z,14.89
2022-09-10T01:05:31.898Z,14.89
2022-09-10T01:06:34.014Z,14.89
2022-09-10T01:07:38.544Z,14.81
2022-09-10T01:08:40.899Z,14.82
2022-09-10T01:09:45.267Z,14.88
2022-09-10T01:10:54.279Z,14.87
2022-09-10T01:12:17.381Z,14.88
2022-09-10T01:13:38.202Z,14.87
2022-09-10T01:14:43.681Z,14.87
2022-09-10T01:16:04.680Z,14.77
2022-09-10T01:17:16.076Z,14.80
2022-09-10T01:18:17.923Z,14.80
2022-09-10T01:19:37.499Z,14.81
2022-09-10T01:20:51.672Z,14.85
2022-09-10T01:22:01.904Z,14.84
2022-09-10T01:23:17.922Z,14.84
2022-09-10T01:24:40.986Z,14.83
2022-09-10T01:25:56.758Z,14.80
2022-09-10T01:27:19.989Z,14.74
2022-09-10T01:28:31.117Z,14.71
2022-09-10T01:29:38.091Z,14.74
2022-09-10T01:30:41.900Z,14.71
2022-09-10T01:31:49.836Z,14.67
2022-09-10T01:33:03.326Z,14.68
2022-09-10T01:34:15.334Z,14.67
2022-09-10T01:35:25.299Z,14.68
2022-09-10T01:36:28.274Z,14.69
2022-09-10T01:37:33.429Z,14.69
2022-09-10T01:38:36.173Z,14.67
2022-09-10T01:39:42.169Z,14.70
2022-09-10T01:40:44.423Z,14.71
2022-09-10T01:41:52.837Z,14.72
2022-09-10T01:43:03.451Z,14.71
2022-09-10T01:44:12.833Z,14.71
2022-09-10T01:45:17.858Z,14.69
2022-09-10T01:46:42.315Z,14.68
2022-09-10T01:47:44.999Z,14.69
2022-09-10T01:49:10.090Z,14.60
2022-09-10T01:50:12.898Z,14.54
2022-09-10T01:51:20.534Z,14.57
2022-09-10T01:52:26.369Z,14.60
2022-09-10T01:53:35.445Z,14.62
2022-09-10T01:54:42.294Z,14.59
2022-09-10T01:55:46.763Z,14.59
2022-09-10T01:56:50.496Z,14.63
2022-09-10T01:57:57.762Z,14.59
2022-09-10T01:59:15.002Z,14.57
2022-09-10T02:00:22.030Z,14.46
2022-09-10T02:01:29.578Z,14.45
2022-09-10T02:02:36.549Z,14.43
2022-09-10T02:03:39.739Z,14.43
2022-09-10T02:04:46.157Z,14.46
2022-09-10T02:05:48.768Z,14.46
2022-09-10T02:06:53.282Z,14.47
2022-09-10T02:07:59.694Z,14.49
2022-09-10T02:09:04.251Z,14.54
2022-09-10T02:10:07.432Z,14.58
2022-09-10T02:11:17.596Z,14.60
2022-09-10T02:12:23.970Z,14.61
2022-09-10T02:13:48.298Z,14.64
2022-09-10T02:14:58.482Z,14.65
2022-09-10T02:16:40.433Z,14.64
2022-09-10T02:17:42.445Z,14.63
2022-09-10T02:18:47.691Z,14.66
2022-09-10T02:19:51.649Z,14.67
2022-09-10T02:20:58.343Z,14.65
2022-09-10T02:22:01.066Z,14.66
2022-09-10T02:23:05.475Z,14.67
2022-09-10T02:24:08.564Z,14.68
2022-09-10T02:25:13.337Z,14.69
2022-09-10T02:26:15.239Z,14.70
2022-09-10T02:27:19.690Z,14.68
2022-09-10T02:28:21.469Z,14.68
2022-09-10T02:29:25.826Z,14.70
2022-09-10T02:30:27.726Z,14.73
2022-09-10T02:31:32.231Z,14.70
2022-09-10T02:32:34.345Z,14.70
2022-09-10T02:33:38.802Z,14.70
2022-09-10T02:34:40.680Z,14.68
2022-09-10T02:35:47.823Z,14.65
2022-09-10T02:36:50.403Z,14.66
2022-09-10T02:37:54.772Z,14.66
2022-09-10T02:38:56.947Z,14.67
2022-09-10T02:40:03.091Z,14.67
2022-09-10T02:41:04.954Z,14.66
2022-09-10T02:42:09.634Z,14.68
2022-09-10T02:43:11.511Z,14.69
2022-09-10T02:44:16.824Z,14.69
2022-09-10T02:45:18.667Z,14.70
2022-09-10T02:46:23.103Z,14.72
2022-09-10T02:47:25.422Z,14.71
2022-09-10T02:48:31.320Z,14.73
2022-09-10T02:49:34.733Z,14.71
2022-09-10T02:50:39.517Z,14.72
2022-09-10T02:51:42.432Z,14.72
2022-09-10T02:52:47.118Z,14.67
2022-09-10T02:53:50.101Z,14.61
2022-09-10T02:54:54.505Z,14.62
2022-09-10T02:55:56.339Z,14.64
2022-09-10T02:57:01.090Z,14.64
2022-09-10T02:58:02.938Z,14.66
2022-09-10T02:59:07.347Z,14.60
2022-09-10T03:00:10.444Z,14.59
2022-09-10T03:01:16.817Z,14.59
2022-09-10T03:02:21.992Z,14.57
2022-09-10T03:03:28.919Z,14.61
2022-09-10T03:04:30.716Z,14.55
2022-09-10T03:05:35.561Z,14.56
2022-09-10T03:06:38.242Z,14.57
2022-09-10T03:07:43.040Z,14.55
2022-09-10T03:08:44.886Z,14.54
2022-09-10T03:09:49.907Z,14.59
2022-09-10T03:10:51.756Z,14.57
2022-09-10T03:11:56.152Z,14.57
2022-09-10T03:12:58.373Z,14.56
2022-09-10T03:14:03.089Z,14.55
2022-09-10T03:15:07.015Z,14.55
2022-09-10T03:16:13.271Z,14.58
2022-09-10T03:17:15.068Z,14.61
2022-09-10T03:18:19.803Z,14.60
2022-09-10T03:19:21.685Z,14.60
2022-09-10T03:20:26.059Z,14.60
2022-09-10T03:21:29.500Z,14.64
2022-09-10T03:22:35.494Z,14.63
2022-09-10T03:25:11.871Z,14.62
2022-09-10T03:26:14.399Z,14.61
2022-09-10T03:27:20.614Z,14.57
2022-09-10T03:28:23.942Z,14.56
2022-09-10T03:29:30.172Z,14.60
2022-09-10T03:30:33.264Z,14.62
2022-09-10T03:31:37.921Z,14.61
2022-09-10T03:32:39.815Z,14.59
2022-09-10T03:33:46.208Z,14.61
2022-09-10T03:34:49.479Z,14.62
2022-09-10T03:35:55.574Z,14.64
2022-09-10T03:37:04.358Z,14.62
2022-09-10T03:38:06.172Z,14.63
2022-09-10T03:39:10.709Z,14.65
2022-09-10T03:40:12.534Z,14.65
2022-09-10T03:41:16.957Z,14.64
2022-09-10T03:42:19.599Z,14.62
2022-09-10T03:43:24.699Z,14.64
2022-09-10T03:44:27.800Z,14.62
2022-09-10T03:45:32.672Z,14.60
2022-09-10T03:46:34.502Z,14.59
2022-09-10T03:47:40.982Z,14.59
2022-09-10T03:48:43.554Z,14.58
2022-09-10T03:49:48.019Z,14.55
2022-09-10T03:50:51.368Z,14.56
2022-09-10T03:51:56.247Z,14.55
2022-09-10T03:52:59.239Z,14.54
2022-09-10T03:54:03.727Z,14.55
2022-09-10T03:55:07.927Z,14.55
2022-09-10T03:56:12.981Z,14.56
2022-09-10T03:57:15.783Z,14.55
2022-09-10T03:58:20.836Z,14.57
2022-09-10T03:59:22.710Z,14.53
2022-09-10T04:00:27.170Z,14.55
2022-09-10T04:01:29.055Z,14.53
2022-09-10T04:02:33.619Z,14.51
2022-09-10T04:03:35.462Z,14.52
2022-09-10T04:04:39.949Z,14.49
2022-09-10T04:05:44.212Z,14.46
2022-09-10T04:06:48.904Z,14.42
2022-09-10T04:07:51.724Z,14.44
2022-09-10T04:08:57.082Z,14.43
2022-09-10T04:09:58.956Z,14.41
2022-09-10T04:11:06.720Z,14.42
2022-09-10T04:12:08.554Z,14.43
2022-09-10T04:13:13.235Z,14.35
2022-09-10T04:14:15.708Z,14.38
2022-09-10T04:15:20.615Z,14.34
2022-09-10T04:16:23.498Z,14.41
2022-09-10T04:17:28.375Z,14.43
2022-09-10T04:18:32.182Z,14.42
2022-09-10T04:19:36.576Z,14.42
2022-09-10T04:20:42.319Z,14.44
2022-09-10T04:21:48.466Z,14.43
2022-09-10T04:22:51.513Z,14.43
2022-09-10T04:23:56.786Z,14.44
2022-09-10T04:25:00.008Z,14.43
2022-09-10T04:26:04.689Z,14.41
2022-09-10T04:27:06.598Z,14.42
2022-09-10T04:28:11.499Z,14.42
2022-09-10T04:29:13.654Z,14.40
2022-09-10T04:30:18.708Z,14.37
2022-09-10T04:31:21.092Z,14.40
2022-09-10T04:32:26.922Z,14.41
2022-09-10T04:33:28.750Z,14.44
2022-09-10T04:34:33.122Z,14.42
2022-09-10T04:35:34.992Z,14.45
2022-09-10T04:36:42.170Z,14.44
2022-09-10T04:37:44.025Z,14.40
2022-09-10T04:38:49.065Z,14.40
2022-09-10T04:39:52.595Z,14.30
2022-09-10T04:40:57.231Z,14.24
2022-09-10T04:41:59.334Z,14.27
2022-09-10T04:43:04.495Z,14.30
2022-09-10T04:44:07.503Z,14.31
2022-09-10T04:45:12.807Z,14.24
2022-09-10T04:46:15.488Z,14.25
2022-09-10T04:47:21.243Z,14.23
2022-09-10T04:48:23.447Z,14.10
2022-09-10T04:49:27.936Z,14.15
2022-09-10T04:50:30.229Z,14.13
2022-09-10T04:51:44.814Z,14.09
2022-09-10T04:52:46.915Z,13.99
2022-09-10T04:53:51.379Z,13.90
2022-09-10T04:54:55.060Z,13.94
2022-09-10T04:55:59.668Z,14.01
2022-09-10T04:57:01.483Z,13.96
2022-09-10T04:58:06.341Z,14.02
2022-09-10T04:59:08.587Z,14.09
2022-09-10T05:00:14.806Z,14.15
2022-09-10T05:01:16.967Z,14.20
2022-09-10T05:02:23.006Z,14.18
2022-09-10T05:03:24.852Z,14.22
2022-09-10T05:04:30.697Z,14.23
2022-09-10T05:05:34.392Z,14.28
2022-09-10T05:06:39.845Z,14.31
2022-09-10T05:07:43.972Z,14.32
2022-09-10T05:08:48.535Z,14.32
2022-09-10T05:09:50.497Z,14.29
2022-09-10T05:10:55.681Z,14.30
2022-09-10T05:11:58.137Z,14.19
2022-09-10T05:13:02.987Z,14.24
2022-09-10T05:14:05.976Z,14.30
2022-09-10T05:15:10.854Z,14.32
2022-09-10T05:16:12.796Z,14.36
2022-09-10T05:17:17.825Z,14.40
2022-09-10T05:18:19.747Z,14.44
2022-09-10T05:19:24.267Z,14.48
2022-09-10T05:20:32.563Z,14.51
2022-09-10T05:21:37.148Z,14.52
2022-09-10T05:22:40.710Z,14.47
2022-09-10T05:23:45.514Z,14.51
2022-09-10T05:24:47.471Z,14.54
2022-09-10T05:25:52.437Z,14.59
2022-09-10T05:26:54.351Z,14.61
2022-09-10T05:28:01.145Z,14.63
2022-09-10T05:29:03.033Z,14.64
2022-09-10T05:30:08.202Z,14.63
2022-09-10T05:31:11.034Z,14.50
2022-09-10T05:32:16.304Z,14.55
2022-09-10T05:33:18.264Z,14.55
2022-09-10T05:34:23.218Z,14.55
2022-09-10T05:35:26.095Z,14.51
2022-09-10T05:36:32.024Z,14.42
2022-09-10T05:37:33.836Z,14.40
2022-09-10T05:38:40.109Z,14.41
2022-09-10T05:39:42.968Z,14.43
2022-09-10T05:40:48.269Z,14.41
2022-09-10T05:41:52.780Z,14.34
2022-09-10T05:42:54.602Z,14.34
2022-09-10T05:44:00.299Z,14.38
2022-09-10T05:45:02.987Z,14.39
2022-09-10T05:46:08.447Z,14.42
2022-09-10T05:47:12.975Z,14.38
2022-09-10T05:48:14.832Z,14.27
2022-09-10T05:49:19.231Z,14.28
2022-09-10T05:50:21.078Z,14.25
2022-09-10T05:51:28.718Z,14.23
2022-09-10T05:52:34.263Z,14.20
2022-09-10T05:53:42.204Z,14.31
2022-09-10T05:54:44.690Z,14.37
2022-09-10T05:55:49.731Z,14.32
2022-09-10T05:56:55.106Z,14.34
2022-09-10T05:57:57.933Z,14.44
2022-09-10T05:59:04.021Z,14.45
2022-09-10T06:00:08.657Z,14.51
2022-09-10T06:01:18.916Z,14.52
2022-09-10T06:02:24.155Z,14.51
2022-09-10T06:03:31.157Z,14.53
2022-09-10T06:04:38.398Z,14.61
2022-09-10T06:05:40.254Z,14.59
2022-09-10T06:06:45.722Z,14.62
2022-09-10T06:07:48.506Z,14.65
2022-09-10T06:08:55.814Z,14.69
2022-09-10T06:10:09.257Z,14.78
2022-09-10T06:11:17.865Z,14.83
2022-09-10T06:12:23.751Z,14.92
2022-09-10T06:13:28.164Z,14.98
2022-09-10T06:14:31.837Z,14.89
2022-09-10T06:15:37.950Z,14.98
2022-09-10T06:16:39.920Z,15.07
2022-09-10T06:17:45.114Z,15.06
2022-09-10T06:18:51.162Z,15.09
2022-09-10T06:19:56.538Z,15.13
2022-09-10T06:21:04.210Z,15.08
2022-09-10T06:22:06.366Z,15.10
2022-09-10T06:23:15.222Z,15.11
2022-09-10T06:24:17.444Z,15.14
2022-09-10T06:25:22.782Z,15.12
2022-09-10T06:26:25.516Z,15.14
2022-09-10T06:27:33.286Z,15.02
2022-09-10T06:28:37.122Z,15.10
2022-09-10T06:29:42.569Z,15.17
2022-09-10T06:30:45.778Z,15.18
2022-09-10T06:31:50.396Z,15.09
2022-09-10T06:32:52.819Z,15.14
2022-09-10T06:33:57.538Z,15.19
2022-09-10T06:35:02.983Z,15.23
2022-09-10T06:36:07.750Z,15.27
2022-09-10T06:37:09.610Z,15.32
2022-09-10T06:38:16.102Z,15.38
2022-09-10T06:39:18.066Z,15.35
2022-09-10T06:40:27.764Z,15.34
2022-09-10T06:41:31.182Z,15.31
2022-09-10T06:42:49.750Z,15.37
2022-09-10T06:43:54.475Z,15.38
2022-09-10T06:45:08.339Z,15.24
2022-09-10T06:47:19.635Z,15.19
2022-09-10T06:48:38.399Z,15.26
2022-09-10T06:49:32.047Z,15.38
2022-09-10T06:50:35.435Z,15.38
2022-09-10T06:51:39.911Z,15.42
2022-09-10T06:52:44.268Z,15.46
2022-09-10T06:53:50.715Z,15.50
2022-09-10T06:54:54.788Z,15.53
2022-09-10T06:56:15.209Z,15.57
2022-09-10T06:57:18.071Z,15.62
2022-09-10T06:58:23.552Z,15.67
2022-09-10T06:59:26.056Z,15.69
2022-09-10T07:00:32.256Z,15.72
2022-09-10T07:01:38.387Z,15.72
2022-09-10T07:02:41.044Z,15.66
2022-09-10T07:03:47.159Z,15.56
2022-09-10T07:04:49.056Z,15.55
2022-09-10T07:05:54.948Z,15.60
2022-09-10T07:07:00.851Z,15.63
2022-09-10T07:08:05.617Z,15.65
2022-09-10T07:09:07.460Z,15.67
2022-09-10T07:10:17.294Z,15.54
2022-09-10T07:11:20.086Z,15.46
2022-09-10T07:12:25.150Z,15.54
2022-09-10T07:13:27.547Z,15.55
2022-09-10T07:14:33.234Z,15.58
2022-09-10T07:15:45.661Z,15.67
2022-09-10T07:16:51.540Z,15.71
2022-09-10T07:17:55.176Z,15.78
2022-09-10T07:19:01.284Z,15.81
2022-09-10T07:20:13.125Z,15.85
2022-09-10T07:21:27.464Z,15.90
2022-09-10T07:22:33.088Z,15.95
2022-09-10T07:23:39.131Z,15.96
2022-09-10T07:24:42.174Z,15.99
2022-09-10T07:25:48.035Z,16.05
2022-09-10T07:27:07.471Z,16.11
2022-09-10T07:28:15.848Z,16.10
2022-09-10T07:29:20.508Z,16.17
2022-09-10T07:30:24.986Z,16.18
2022-09-10T07:31:28.908Z,16.19
2022-09-10T07:32:35.786Z,16.19
2022-09-10T07:33:48.433Z,16.16
2022-09-10T07:34:52.334Z,16.17
2022-09-10T07:35:58.484Z,16.14
2022-09-10T07:37:00.284Z,16.09
2022-09-10T07:38:06.984Z,16.10
2022-09-10T07:39:12.835Z,16.03
2022-09-10T07:40:18.763Z,16.05
2022-09-10T07:41:20.864Z,16.00
2022-09-10T07:42:26.376Z,15.89
2022-09-10T07:43:28.290Z,15.79
2022-09-10T07:44:33.417Z,15.78
2022-09-10T07:45:37.129Z,15.75
2022-09-10T07:46:42.903Z,15.68
2022-09-10T07:47:48.050Z,15.61
2022-09-10T07:48:56.729Z,15.68
2022-09-10T07:49:59.887Z,15.71
2022-09-10T07:51:05.257Z,15.74
2022-09-10T07:52:09.841Z,15.76
2022-09-10T07:53:21.665Z,15.83
2022-09-10T07:54:24.891Z,15.87
2022-09-10T07:55:33.082Z,15.90
2022-09-10T07:56:38.087Z,15.95
2022-09-10T07:57:42.282Z,16.00
2022-09-10T07:58:47.871Z,16.05
2022-09-10T07:59:49.873Z,16.11
2022-09-10T08:00:57.147Z,16.19
2022-09-10T08:02:00.218Z,16.25
2022-09-10T08:03:05.923Z,16.32
2022-09-10T08:04:10.855Z,16.32
2022-09-10T08:05:14.306Z,16.33
2022-09-10T08:06:19.503Z,16.36
2022-09-10T08:07:23.449Z,16.41
2022-09-10T08:08:28.047Z,16.41
2022-09-10T08:09:30.038Z,16.38
2022-09-10T08:10:34.439Z,16.42
2022-09-10T08:11:40.014Z,16.42
2022-09-10T08:12:44.186Z,16.46
2022-09-10T08:13:50.742Z,16.49
2022-09-10T08:14:57.811Z,16.51
2022-09-10T08:16:03.180Z,16.54
2022-09-10T08:17:05.755Z,16.56
2022-09-10T08:18:15.482Z,16.52
2022-09-10T08:19:19.162Z,16.58
2022-09-10T08:20:26.861Z,16.59
2022-09-10T08:21:31.958Z,16.60
2022-09-10T08:22:35.180Z,16.62
2022-09-10T08:23:39.940Z,16.64
2022-09-10T08:24:44.421Z,16.67
2022-09-10T08:25:50.152Z,16.71
2022-09-10T08:26:55.049Z,16.75
2022-09-10T08:27:57.264Z,16.82
2022-09-10T08:29:02.766Z,16.84
2022-09-10T08:30:04.875Z,16.85
2022-09-10T08:31:11.759Z,16.91
2022-09-10T08:32:21.086Z,16.95
2022-09-10T08:33:25.752Z,16.99
2022-09-10T08:34:29.607Z,17.03
2022-09-10T08:35:41.611Z,17.07
2022-09-10T08:36:43.536Z,17.12
2022-09-10T08:37:49.083Z,17.15
2022-09-10T08:38:58.263Z,17.17
2022-09-10T08:40:05.377Z,17.21
2022-09-10T08:41:14.220Z,17.21
2022-09-10T08:42:23.006Z,17.20
2022-09-10T08:43:32.497Z,17.20
2022-09-10T08:44:34.786Z,17.23
2022-09-10T08:45:39.898Z,17.18
2022-09-10T08:46:41.964Z,17.21
2022-09-10T08:48:00.550Z,17.21
2022-09-10T08:49:20.798Z,17.24
2022-09-10T08:50:33.049Z,17.27
2022-09-10T08:51:42.501Z,17.28
2022-09-10T08:52:49.153Z,17.33
2022-09-10T08:54:04.556Z,17.35
2022-09-10T08:55:20.778Z,17.33
2022-09-10T08:56:27.270Z,17.35
2022-09-10T08:57:40.115Z,17.36
2022-09-10T08:58:48.443Z,17.38
2022-09-10T08:59:52.335Z,17.40
2022-09-10T09:00:59.404Z,17.40
2022-09-10T09:02:03.850Z,17.41
2022-09-10T09:03:13.170Z,17.41
2022-09-10T09:04:17.254Z,17.43
2022-09-10T09:05:23.666Z,17.44
2022-09-10T09:06:51.308Z,17.48
2022-09-10T09:07:54.236Z,17.53
2022-09-10T09:08:58.625Z,17.57
2022-09-10T09:10:05.036Z,17.64
2022-09-10T09:11:13.614Z,17.70
2022-09-10T09:12:19.045Z,17.74
2022-09-10T09:13:35.207Z,17.75
2022-09-10T09:14:59.089Z,17.77
2022-09-10T09:16:23.440Z,17.77
2022-09-10T09:17:27.944Z,17.77
2022-09-10T09:18:50.015Z,17.78
2022-09-10T09:19:54.660Z,17.78
2022-09-10T09:21:03.041Z,17.82
2022-09-10T09:22:23.995Z,17.83
2022-09-10T09:24:09.322Z,17.87
2022-09-10T09:25:31.708Z,17.90
2022-09-10T09:26:35.530Z,17.92
2022-09-10T09:27:42.070Z,17.95
2022-09-10T09:28:45.959Z,17.98
2022-09-10T09:29:58.515Z,18.00
2022-09-10T09:31:09.290Z,18.02
2022-09-10T09:32:12.697Z,18.03
2022-09-10T09:33:17.781Z,18.03
2022-09-10T09:34:37.006Z,18.05
2022-09-10T09:35:50.262Z,18.08
2022-09-10T09:36:53.605Z,18.09
2022-09-10T09:38:05.978Z,18.12
2022-09-10T09:39:25.435Z,18.15
2022-09-10T09:40:39.617Z,18.17
2022-09-10T09:41:42.951Z,18.19
2022-09-10T09:42:52.259Z,18.22
2022-09-10T09:44:12.182Z,18.22
2022-09-10T09:45:14.499Z,18.25
2022-09-10T09:46:19.774Z,18.27
2022-09-10T09:47:24.555Z,18.29
2022-09-10T09:48:29.375Z,18.31
2022-09-10T09:49:31.253Z,18.33
2022-09-10T09:50:36.367Z,18.33
2022-09-10T09:51:38.192Z,18.32
2022-09-10T09:52:43.932Z,18.33
2022-09-10T09:53:51.146Z,18.33
2022-09-10T09:55:13.662Z,18.28
2022-09-10T09:56:25.181Z,18.31
2022-09-10T09:57:27.387Z,18.28
2022-09-10T09:58:33.814Z,18.26
2022-09-10T09:59:35.752Z,18.26
2022-09-10T10:00:40.689Z,18.26
2022-09-10T10:01:42.813Z,18.25
2022-09-10T10:02:47.353Z,18.22
2022-09-10T10:04:02.998Z,18.20
2022-09-10T10:05:05.622Z,18.16
2022-09-10T10:06:10.915Z,18.13
2022-09-10T10:07:12.705Z,17.82
2022-09-10T10:08:36.002Z,17.83
2022-09-10T10:09:42.882Z,17.78
2022-09-10T10:10:44.668Z,17.67
2022-09-10T10:11:53.823Z,17.72
2022-09-10T10:12:55.898Z,17.67
2022-09-10T10:14:00.258Z,17.61
2022-09-10T10:15:05.460Z,17.65
2022-09-10T10:16:17.830Z,17.68
2022-09-10T10:17:27.995Z,17.69
2022-09-10T10:18:31.873Z,17.71
2022-09-10T10:19:40.401Z,17.74
2022-09-10T10:20:42.233Z,17.79
2022-09-10T10:21:47.458Z,17.82
2022-09-10T10:22:52.210Z,17.87
2022-09-10T10:23:53.991Z,17.91
2022-09-10T10:24:58.368Z,17.93
2022-09-10T10:26:01.361Z,17.99
2022-09-10T10:27:05.738Z,18.01
2022-09-10T10:28:17.176Z,18.05
2022-09-10T10:29:19.641Z,18.09
2022-09-10T10:30:25.156Z,18.13
2022-09-10T10:31:34.554Z,18.15
2022-09-10T10:32:53.610Z,18.12
2022-09-10T10:33:58.642Z,18.14
2022-09-10T10:35:03.331Z,18.09
2022-09-10T10:36:25.578Z,18.03
2022-09-10T10:37:33.679Z,18.00
2022-09-10T10:38:39.547Z,17.99
2022-09-10T10:39:41.552Z,18.03
2022-09-10T10:41:05.595Z,18.05
2022-09-10T10:42:14.030Z,18.11
2022-09-10T10:43:24.883Z,18.13
2022-09-10T10:44:32.390Z,18.19
2022-09-10T10:45:40.693Z,18.21
2022-09-10T10:47:02.520Z,18.24
2022-09-10T10:48:10.015Z,18.25
2022-09-10T10:49:35.089Z,18.26
2022-09-10T10:50:39.873Z,18.25
2022-09-10T10:51:44.669Z,18.24
2022-09-10T10:52:51.462Z,18.25
2022-09-10T10:54:08.336Z,18.23
2022-09-10T10:55:33.048Z,18.27
2022-09-10T10:56:37.575Z,18.29
2022-09-10T10:57:47.980Z,18.32
2022-09-10T10:59:12.049Z,18.35
2022-09-10T11:00:17.014Z,18.37
2022-09-10T11:01:25.848Z,18.31
2022-09-10T11:02:33.334Z,18.39
2022-09-10T11:03:41.986Z,18.44
2022-09-10T11:04:53.076Z,18.46
2022-09-10T11:06:05.170Z,18.47
2022-09-10T11:07:15.638Z,18.49
2022-09-10T11:08:33.475Z,18.50
2022-09-10T11:09:46.457Z,18.51
2022-09-10T11:10:50.504Z,18.54
2022-09-10T11:11:59.973Z,18.56
2022-09-10T11:13:04.330Z,18.49
2022-09-10T11:14:06.516Z,18.46
2022-09-10T11:15:16.657Z,18.41
2022-09-10T11:16:22.687Z,18.31
2022-09-10T11:17:39.401Z,18.24
2022-09-10T11:18:48.831Z,18.21
2022-09-10T11:20:26.726Z,18.18
2022-09-10T11:21:40.982Z,18.15
2022-09-10T11:22:45.320Z,18.08
2022-09-10T11:23:52.175Z,18.04
2022-09-10T11:24:57.906Z,18.00
2022-09-10T11:26:12.454Z,17.95
2022-09-10T11:27:21.762Z,17.85
2022-09-10T11:28:28.829Z,17.80
2022-09-10T11:29:46.202Z,17.72
2022-09-10T11:30:49.438Z,17.64
2022-09-10T11:32:06.310Z,17.61
2022-09-10T11:33:13.711Z,17.56
2022-09-10T11:34:21.248Z,17.54
2022-09-10T11:35:40.151Z,17.49
2022-09-10T11:37:06.778Z,17.48
2022-09-10T11:38:20.728Z,17.45
2022-09-10T11:39:26.975Z,17.53
2022-09-10T11:40:39.244Z,17.54
2022-09-10T11:41:44.585Z,17.55
2022-09-10T11:42:48.012Z,17.56
2022-09-10T11:43:53.683Z,17.58
2022-09-10T11:45:04.014Z,17.59
2022-09-10T11:46:12.708Z,17.59
2022-09-10T11:47:33.686Z,17.62
2022-09-10T11:49:13.472Z,17.64
2022-09-10T11:50:34.315Z,17.67
2022-09-10T11:51:39.816Z,17.67
2022-09-10T11:52:42.189Z,17.63
2022-09-10T11:53:46.717Z,17.57
2022-09-10T11:54:48.495Z,17.61
2022-09-10T11:55:58.146Z,17.55
2022-09-10T11:57:28.902Z,17.54
2022-09-10T11:58:39.759Z,17.51
2022-09-10T11:59:50.747Z,17.53
2022-09-10T12:01:15.496Z,17.55
2022-09-10T12:02:27.363Z,17.56
2022-09-10T12:03:42.469Z,17.57
2022-09-10T12:04:47.631Z,17.61
2022-09-10T12:06:01.300Z,17.60
2022-09-10T12:07:21.175Z,17.60
2022-09-10T12:08:44.350Z,17.57
2022-09-10T12:10:05.439Z,17.60
2022-09-10T12:11:09.565Z,17.63
2022-09-10T12:12:25.802Z,17.60
2022-09-10T12:13:31.106Z,17.63
2022-09-10T12:14:35.709Z,17.68
2022-09-10T12:15:40.195Z,17.69
2022-09-10T12:16:46.354Z,17.78
2022-09-10T12:17:52.317Z,17.78
2022-09-10T12:18:54.135Z,17.70
2022-09-10T12:20:00.313Z,17.73
2022-09-10T12:21:04.598Z,17.79
2022-09-10T12:22:10.040Z,17.79
2022-09-10T12:23:18.542Z,17.80
2022-09-10T12:24:27.127Z,17.67
2022-09-10T12:25:34.670Z,17.66
2022-09-10T12:26:43.222Z,17.72
2022-09-10T12:27:49.278Z,17.68
2022-09-10T12:28:54.071Z,17.71
2022-09-10T12:29:58.480Z,17.71
2022-09-10T12:31:01.271Z,17.77
2022-09-10T12:32:12.411Z,17.80
2022-09-10T12:33:17.242Z,17.79
2022-09-10T12:34:22.309Z,17.72
2022-09-10T12:35:42.273Z,17.75
2022-09-10T12:36:46.630Z,17.83
2022-09-10T12:37:51.024Z,17.88
2022-09-10T12:39:16.587Z,17.93
2022-09-10T12:40:29.813Z,17.98
2022-09-10T12:41:31.609Z,18.02
2022-09-10T12:42:36.988Z,18.03
2022-09-10T12:43:41.904Z,18.07
2022-09-10T12:44:47.206Z,18.06
2022-09-10T12:46:02.390Z,18.05
2022-09-10T12:47:19.067Z,18.02
2022-09-10T12:48:26.893Z,17.93
2022-09-10T12:49:28.991Z,17.91
2022-09-10T12:50:34.484Z,17.92
2022-09-10T12:51:41.682Z,17.88
2022-09-10T12:52:51.001Z,17.78
2022-09-10T12:54:07.317Z,17.78
2022-09-10T12:55:16.285Z,17.77
2022-09-10T12:56:40.465Z,17.79
2022-09-10T12:57:44.826Z,17.67
2022-09-10T12:58:51.312Z,17.70
2022-09-10T13:00:15.137Z,17.69
2022-09-10T13:01:24.943Z,17.62
2022-09-10T13:02:40.425Z,17.60
2022-09-10T13:03:56.267Z,17.58
2022-09-10T13:05:02.004Z,17.60
2022-09-10T13:06:07.165Z,17.64
2022-09-10T13:07:25.801Z,17.67
2022-09-10T13:08:31.037Z,17.68
2022-09-10T13:09:34.156Z,17.69
2022-09-10T13:10:38.714Z,17.69
2022-09-10T13:11:40.500Z,17.74
2022-09-10T13:12:44.987Z,17.74
2022-09-10T13:13:46.814Z,17.72
2022-09-10T13:14:52.874Z,17.74
2022-09-10T13:15:54.687Z,17.69
2022-09-10T13:16:59.088Z,17.64
2022-09-10T13:18:01.412Z,17.64
2022-09-10T13:19:15.283Z,17.67
2022-09-10T13:20:19.907Z,17.62
2022-09-10T13:21:27.273Z,17.54
2022-09-10T13:22:33.521Z,17.48
2022-09-10T13:23:47.979Z,17.45
2022-09-10T13:25:00.096Z,17.40
2022-09-10T13:26:24.434Z,17.38
2022-09-10T13:27:43.886Z,17.29
2022-09-10T13:28:46.482Z,17.28
2022-09-10T13:29:57.430Z,17.29
2022-09-10T13:31:05.450Z,17.33
2022-09-10T13:32:14.318Z,17.25
2022-09-10T13:33:21.749Z,17.25
2022-09-10T13:34:48.669Z,17.28
2022-09-10T13:35:59.680Z,17.21
2022-09-10T13:37:06.910Z,17.16
2022-09-10T13:38:08.660Z,17.09
2022-09-10T13:39:15.982Z,17.09
2022-09-10T13:40:39.183Z,17.11
2022-09-10T13:41:52.990Z,17.11
2022-09-10T13:43:04.885Z,17.14
2022-09-10T13:44:10.333Z,17.14
2022-09-10T13:45:14.790Z,17.18
2022-09-10T13:46:21.418Z,17.21
2022-09-10T13:47:36.673Z,17.18
2022-09-10T13:48:44.646Z,17.23
2022-09-10T13:50:03.587Z,17.25
2022-09-10T13:51:14.165Z,17.28
2022-09-10T13:52:19.180Z,17.32
2022-09-10T13:53:24.881Z,17.33
2022-09-10T13:54:34.554Z,17.34
2022-09-10T13:55:38.981Z,17.36
2022-09-10T13:56:41.796Z,17.33
2022-09-10T13:57:47.640Z,17.33
2022-09-10T13:58:52.927Z,17.33
2022-09-10T14:00:03.495Z,17.32
2022-09-10T14:01:06.198Z,17.27
2022-09-10T14:02:10.686Z,17.27
2022-09-10T14:03:16.986Z,17.27
2022-09-10T14:04:44.738Z,17.26
2022-09-10T14:05:48.271Z,17.18
2022-09-10T14:06:52.959Z,17.15
2022-09-10T14:07:59.058Z,17.10
2022-09-10T14:09:06.771Z,17.09
2022-09-10T14:10:08.722Z,17.03
2022-09-10T14:11:16.086Z,17.00
2022-09-10T14:12:18.298Z,16.97
2022-09-10T14:13:31.151Z,16.96
2022-09-10T14:14:34.704Z,16.91
2022-09-10T14:15:40.619Z,16.90
2022-09-10T14:16:52.338Z,16.88
2022-09-10T14:17:55.321Z,16.78
2022-09-10T14:19:01.862Z,16.80
2022-09-10T14:20:06.253Z,16.81
2022-09-10T14:21:11.413Z,16.80
2022-09-10T14:22:22.288Z,16.81
2022-09-10T14:23:26.691Z,16.80
2022-09-10T14:24:33.649Z,16.74
2022-09-10T14:25:39.242Z,16.70